Time;durP1;ratioP1;P1;durP2;ratioP2;P2;SDS_P1;SDS_P2;PMS_P1;PMS_P2;Temp;Humidity;BMP_temperature;BMP_pressure;BME280_temperature;BME280_humidity;BME280_pressure;Samples;Min_cycle;Max_cycle;Signal;HPM_P1;HPM_P2
2021/07/03 00:00:09;;;;;;;16.02;9.27;;;;;;;19.22;59.94;101204.50;6153668;23;20025;-80
2021/07/03 00:02:37;;;;;;;11.55;8.27;;;;;;;19.31;59.70;101201.69;6127396;23;20092;-81
2021/07/03 00:05:04;;;;;;;12.27;8.20;;;;;;;19.16;59.77;101198.91;6127382;23;20005;-81
2021/07/03 00:07:30;;;;;;;14.85;8.68;;;;;;;18.98;60.54;101208.22;6153652;23;20009;-81
2021/07/03 00:09:55;;;;;;;11.90;8.55;;;;;;;19.17;60.27;101203.34;6153718;23;20016;-81
2021/07/03 00:12:21;;;;;;;11.02;8.13;;;;;;;19.04;60.39;101212.13;6155365;23;20377;-80
2021/07/03 00:14:46;;;;;;;15.80;8.63;;;;;;;18.94;60.69;101204.13;6153848;23;20071;-81
2021/07/03 00:17:11;;;;;;;11.68;7.82;;;;;;;19.01;60.49;101199.69;6153965;23;20037;-81
2021/07/03 00:19:37;;;;;;;12.68;8.45;;;;;;;19.01;60.81;101196.13;6127312;23;20005;-80
2021/07/03 00:22:02;;;;;;;10.68;7.63;;;;;;;19.15;60.41;101199.94;6153313;23;20153;-80
2021/07/03 00:24:27;;;;;;;17.27;8.50;;;;;;;19.13;60.51;101205.59;6153536;23;20045;-81
2021/07/03 00:26:53;;;;;;;13.85;8.60;;;;;;;19.23;60.00;101206.19;6153715;23;20010;-80
2021/07/03 00:29:18;;;;;;;12.85;8.65;;;;;;;19.12;60.39;101203.88;6126601;23;20048;-80
2021/07/03 00:31:43;;;;;;;12.95;8.52;;;;;;;19.00;60.48;101208.88;6152664;23;20342;-80
2021/07/03 00:34:09;;;;;;;12.27;9.18;;;;;;;18.93;61.03;101213.34;6127184;23;20449;-80
2021/07/03 00:36:34;;;;;;;10.25;7.63;;;;;;;19.06;60.69;101218.22;6153491;23;20485;-80
2021/07/03 00:39:00;;;;;;;10.15;7.90;;;;;;;19.00;60.72;101213.47;6153197;23;20093;-80
2021/07/03 00:41:25;;;;;;;13.23;8.27;;;;;;;18.96;61.19;101209.44;6153726;23;20037;-81
2021/07/03 00:43:50;;;;;;;11.18;8.98;;;;;;;19.16;60.42;101210.66;6153582;23;20009;-81
2021/07/03 00:46:16;;;;;;;13.52;8.57;;;;;;;19.06;60.59;101215.50;6153290;23;20012;-81
2021/07/03 00:48:42;;;;;;;15.32;8.50;;;;;;;19.18;60.39;101216.78;6153471;23;20009;-80
2021/07/03 00:51:07;;;;;;;11.68;8.35;;;;;;;18.96;61.00;101210.28;6153023;23;20005;-81
2021/07/03 00:53:33;;;;;;;14.63;8.70;;;;;;;19.05;60.59;101213.81;6153301;23;20036;-80
2021/07/03 00:55:59;;;;;;;12.15;8.65;;;;;;;18.96;61.29;101203.97;6153094;23;20118;-81
2021/07/03 00:58:25;;;;;;;14.70;9.65;;;;;;;19.01;60.92;101207.88;6153055;23;20434;-81
2021/07/03 01:00:51;;;;;;;12.25;8.77;;;;;;;19.03;60.39;101207.66;6126218;23;20005;-81
2021/07/03 01:03:16;;;;;;;9.88;8.05;;;;;;;19.11;59.83;101204.91;6126242;23;20014;-81
2021/07/03 01:05:42;;;;;;;13.85;8.82;;;;;;;18.85;60.79;101212.53;6153589;23;20012;-81
2021/07/03 01:08:08;;;;;;;14.45;9.80;;;;;;;18.75;60.87;101210.88;6152587;23;20009;-81
2021/07/03 01:10:34;;;;;;;12.20;7.97;;;;;;;18.90;60.24;101212.88;6153297;23;20080;-81
2021/07/03 01:12:59;;;;;;;14.77;8.75;;;;;;;18.80;60.87;101213.94;6152596;23;20005;-80
2021/07/03 01:15:25;;;;;;;11.30;8.70;;;;;;;18.78;60.91;101215.97;6152664;23;20041;-80
2021/07/03 01:17:51;;;;;;;12.05;8.13;;;;;;;18.83;60.48;101215.47;6152898;23;20377;-80
2021/07/03 01:20:17;;;;;;;11.73;8.40;;;;;;;18.53;60.58;101214.38;6153239;23;20012;-80
2021/07/03 01:22:45;;;;;;;9.52;8.52;;;;;;;18.71;60.74;101212.25;6152774;23;20013;-81
2021/07/03 01:25:12;;;;;;;9.05;7.57;;;;;;;18.71;60.38;101206.81;6153095;23;20010;-80
2021/07/03 01:27:38;;;;;;;10.45;7.38;;;;;;;18.87;59.58;101211.34;6152637;23;20009;-80
2021/07/03 01:30:06;;;;;;;8.18;7.03;;;;;;;18.88;59.80;101207.59;6126303;23;20036;-80
2021/07/03 01:32:32;;;;;;;10.68;6.50;;;;;;;18.76;59.73;101212.59;6152904;23;20380;-80
2021/07/03 01:34:58;;;;;;;8.25;6.68;;;;;;;18.99;59.34;101206.34;6152806;23;20029;-80
2021/07/03 01:37:24;;;;;;;11.02;7.25;;;;;;;18.99;59.30;101209.06;6126304;23;20052;-80
2021/07/03 01:39:50;;;;;;;10.50;7.18;;;;;;;18.92;59.25;101205.38;6152897;23;20020;-81
2021/07/03 01:42:17;;;;;;;9.25;6.97;;;;;;;18.85;59.84;101202.50;6126171;23;20002;-81
2021/07/03 01:44:44;;;;;;;7.60;6.90;;;;;;;18.88;59.55;101201.28;6153218;23;20009;-81
2021/07/03 01:47:09;;;;;;;8.15;6.57;;;;;;;18.90;59.49;101205.53;6152688;23;20110;-81
2021/07/03 01:49:37;;;;;;;8.05;6.15;;;;;;;18.83;59.40;101204.56;6153357;23;20040;-80
2021/07/03 01:52:03;;;;;;;8.55;5.88;;;;;;;18.71;59.65;101195.06;6153385;23;20013;-80
2021/07/03 01:54:28;;;;;;;9.13;6.13;;;;;;;18.67;59.87;101194.56;6154961;23;20009;-81
2021/07/03 01:56:59;;;;;;;10.10;6.28;;;;;;;18.72;59.64;101191.28;6155071;23;20346;-80
2021/07/03 01:59:30;;;;;;;7.18;5.63;;;;;;;18.92;59.09;101189.03;6155079;23;20033;-81
2021/07/03 02:01:57;;;;;;;6.35;5.32;;;;;;;18.73;59.34;101184.84;6128918;23;20064;-80
2021/07/03 02:04:22;;;;;;;5.72;5.15;;;;;;;18.98;59.12;101177.41;6154668;23;20033;-81
2021/07/03 02:06:48;;;;;;;8.50;5.82;;;;;;;18.90;58.90;101180.16;6128052;23;20006;-81
2021/07/03 02:09:18;;;;;;;6.53;5.28;;;;;;;18.74;59.32;101173.78;6154752;23;20334;-81
2021/07/03 02:11:43;;;;;;;7.75;6.20;;;;;;;18.89;59.05;101184.78;6155021;23;20060;-81
2021/07/03 02:14:10;;;;;;;7.35;5.57;;;;;;;18.94;59.39;101178.75;6155176;23;20009;-81
2021/07/03 02:16:36;;;;;;;6.72;5.93;;;;;;;18.96;59.14;101174.84;6128170;23;20001;-80
2021/07/03 02:19:02;;;;;;;10.10;6.00;;;;;;;18.96;58.98;101174.84;6154516;23;20029;-81
2021/07/03 02:21:28;;;;;;;6.45;5.43;;;;;;;19.04;58.91;101179.41;6154504;23;20016;-80
2021/07/03 02:23:53;;;;;;;8.82;5.43;;;;;;;18.94;59.24;101182.34;6127771;23;20005;-80
2021/07/03 02:26:21;;;;;;;9.95;5.55;;;;;;;18.84;59.22;101173.53;6154772;23;20064;-81
2021/07/03 02:28:47;;;;;;;6.63;5.53;;;;;;;18.81;59.50;101174.75;6154257;23;20465;-81
2021/07/03 02:31:12;;;;;;;5.95;5.07;;;;;;;18.84;59.61;101184.44;6154441;23;20014;-81
2021/07/03 02:33:37;;;;;;;9.43;5.47;;;;;;;18.73;60.05;101180.25;6154330;23;20006;-81
2021/07/03 02:36:03;;;;;;;6.65;4.95;;;;;;;18.77;60.20;101184.31;6127819;23;20002;-81
2021/07/03 02:38:28;;;;;;;7.13;5.05;;;;;;;18.64;59.63;101189.47;6154424;23;20434;-81
2021/07/03 02:40:54;;;;;;;9.43;5.25;;;;;;;18.69;60.08;101186.19;6154906;23;20006;-80
2021/07/03 02:43:19;;;;;;;9.38;5.25;;;;;;;18.69;60.08;101176.16;6154315;23;20311;-80
2021/07/03 02:45:44;;;;;;;8.07;5.20;;;;;;;18.67;59.84;101178.22;6128163;23;20382;-80
2021/07/03 02:48:10;;;;;;;11.57;5.90;;;;;;;18.72;60.07;101177.66;6153561;23;20072;-80
2021/07/03 02:50:35;;;;;;;8.73;5.15;;;;;;;18.80;59.59;101178.50;6127977;23;20005;-81
2021/07/03 02:53:00;;;;;;;5.18;3.55;;;;;;;18.53;59.21;101182.53;6154372;23;20016;-81
2021/07/03 02:55:27;;;;;;;4.32;3.60;;;;;;;18.19;60.16;101174.66;6154189;23;20005;-80
2021/07/03 02:57:52;;;;;;;4.32;3.80;;;;;;;18.37;60.16;101180.72;6127263;23;20009;-81
2021/07/03 03:00:18;;;;;;;4.80;4.03;;;;;;;18.43;59.94;101178.34;6153805;23;20105;-80
2021/07/03 03:02:44;;;;;;;6.22;4.30;;;;;;;18.24;60.59;101180.41;6153615;23;20041;-81
2021/07/03 03:05:11;;;;;;;6.45;3.90;;;;;;;18.25;60.64;101184.84;6153970;23;20468;-81
2021/07/03 03:07:37;;;;;;;6.97;5.25;;;;;;;18.43;60.29;101172.88;6154769;23;20047;-80
2021/07/03 03:10:04;;;;;;;6.90;4.20;;;;;;;18.40;60.24;101176.81;6154278;23;20009;-81
2021/07/03 03:12:29;;;;;;;10.88;3.88;;;;;;;18.55;59.91;101180.50;6153989;23;20002;-81
2021/07/03 03:14:54;;;;;;;6.22;3.92;;;;;;;18.66;59.76;101178.38;6154381;23;20009;-81
2021/07/03 03:17:20;;;;;;;4.05;3.40;;;;;;;18.64;59.60;101184.03;6154483;23;20055;-81
2021/07/03 03:19:45;;;;;;;4.88;3.30;;;;;;;18.56;59.26;101186.78;6154004;23;20036;-82
2021/07/03 03:22:10;;;;;;;4.57;3.20;;;;;;;18.61;59.55;101178.94;6153691;23;20076;-80
2021/07/03 03:24:36;;;;;;;4.80;2.95;;;;;;;18.65;59.00;101193.88;6153936;23;20009;-81
2021/07/03 03:27:01;;;;;;;5.70;3.13;;;;;;;18.40;60.28;101184.97;6153613;23;20009;-80
2021/07/03 03:29:27;;;;;;;5.72;3.45;;;;;;;18.51;60.03;101184.56;6127399;23;20025;-80
2021/07/03 03:31:52;;;;;;;5.40;3.42;;;;;;;18.50;60.10;101192.94;6154525;23;20009;-81
2021/07/03 03:34:17;;;;;;;4.18;3.10;;;;;;;18.52;60.15;101190.91;6153820;23;20108;-81
2021/07/03 03:36:43;;;;;;;3.22;2.92;;;;;;;18.52;59.93;101190.91;6153875;23;20442;-81
2021/07/03 03:39:08;;;;;;;6.32;3.00;;;;;;;18.65;59.61;101185.72;6127410;23;20017;-80
2021/07/03 03:41:33;;;;;;;5.85;3.42;;;;;;;18.45;60.39;101198.06;6153556;23;20013;-81
2021/07/03 03:43:59;;;;;;;6.57;3.17;;;;;;;18.31;61.02;101189.59;6127068;23;20005;-81
2021/07/03 03:46:24;;;;;;;3.85;3.10;;;;;;;18.37;61.06;101190.78;6154094;23;20005;-81
2021/07/03 03:48:50;;;;;;;4.88;3.10;;;;;;;18.32;61.50;101185.84;6126860;23;20450;-81
2021/07/03 03:51:15;;;;;;;4.65;3.10;;;;;;;18.43;61.52;101191.94;6153624;23;20085;-81
2021/07/03 03:53:41;;;;;;;4.75;3.25;;;;;;;18.54;60.97;101184.22;6153377;23;20063;-80
2021/07/03 03:56:06;;;;;;;5.55;3.20;;;;;;;18.42;61.44;101195.69;6153545;23;20009;-81
2021/07/03 03:58:31;;;;;;;3.97;3.10;;;;;;;18.36;61.65;101195.38;6153543;23;20056;-81
2021/07/03 04:00:57;;;;;;;5.15;3.03;;;;;;;18.32;61.62;101194.00;6153907;23;20012;-80
2021/07/03 04:03:22;;;;;;;3.97;3.15;;;;;;;18.39;61.39;101191.44;6153683;23;20093;-81
2021/07/03 04:05:47;;;;;;;5.38;3.72;;;;;;;18.50;61.33;101188.34;6153802;23;20084;-81
2021/07/03 04:08:12;;;;;;;5.47;3.72;;;;;;;18.47;61.78;101193.28;6153275;23;20088;-81
2021/07/03 04:10:38;;;;;;;4.60;3.08;;;;;;;18.53;61.70;101192.59;6127328;23;20048;-81
2021/07/03 04:13:03;;;;;;;7.95;3.83;;;;;;;18.62;61.56;101188.78;6126955;23;20010;-81
2021/07/03 04:15:29;;;;;;;6.10;3.13;;;;;;;18.72;61.00;101185.84;6153350;23;20091;-81
2021/07/03 04:17:54;;;;;;;7.65;3.65;;;;;;;18.85;60.77;101183.41;6126764;23;20442;-81
2021/07/03 04:20:19;;;;;;;9.10;3.97;;;;;;;18.71;61.18;101181.44;6127059;23;20010;-81
2021/07/03 04:22:45;;;;;;;4.38;2.88;;;;;;;18.73;60.96;101182.13;6153245;23;20037;-81
2021/07/03 04:25:12;;;;;;;6.30;3.20;;;;;;;18.65;61.17;101182.16;6152989;23;20005;-81
2021/07/03 04:27:39;;;;;;;4.00;3.00;;;;;;;18.49;61.90;101185.81;6153301;23;20009;-81
2021/07/03 04:30:06;;;;;;;4.25;3.53;;;;;;;18.56;61.19;101175.88;6153199;23;20021;-80
2021/07/03 04:32:31;;;;;;;6.32;3.28;;;;;;;18.56;61.26;101187.63;6153824;23;20029;-80
2021/07/03 04:34:56;;;;;;;3.63;3.15;;;;;;;18.54;61.67;101189.66;6153255;23;20013;-81
2021/07/03 04:37:22;;;;;;;4.20;3.03;;;;;;;18.35;61.82;101190.94;6153097;23;20350;-81
2021/07/03 04:39:47;;;;;;;3.80;3.30;;;;;;;18.62;61.09;101177.06;6152907;23;20056;-81
2021/07/03 04:42:12;;;;;;;5.00;2.78;;;;;;;18.63;61.28;101182.31;6126418;23;20016;-81
2021/07/03 04:44:38;;;;;;;4.63;2.83;;;;;;;18.62;61.36;101183.34;6153130;23;20006;-80
2021/07/03 04:47:03;;;;;;;4.85;3.25;;;;;;;18.73;61.28;101188.44;6153199;23;20013;-81
2021/07/03 04:49:32;;;;;;;6.15;3.30;;;;;;;18.68;60.94;101179.06;6153035;23;20522;-81
2021/07/03 04:51:58;;;;;;;4.38;2.85;;;;;;;18.35;61.62;101179.19;6153223;23;20001;-80
2021/07/03 04:54:23;;;;;;;6.50;2.88;;;;;;;18.46;61.44;101180.72;6152949;23;20084;-81
2021/07/03 04:56:49;;;;;;;4.18;2.60;;;;;;;18.29;61.64;101183.47;6153293;23;20036;-81
2021/07/03 04:59:14;;;;;;;3.03;2.72;;;;;;;18.16;62.52;101188.63;6125853;23;20400;-81
2021/07/03 05:01:39;;;;;;;3.25;2.47;;;;;;;18.22;62.08;101182.47;6152963;23;20334;-80
2021/07/03 05:04:05;;;;;;;5.45;3.08;;;;;;;18.12;62.67;101189.97;6126560;23;20016;-81
2021/07/03 05:06:31;;;;;;;4.40;2.85;;;;;;;18.26;62.96;101192.00;6153208;23;20016;-81
2021/07/03 05:08:56;;;;;;;3.67;2.90;;;;;;;18.20;62.63;101194.56;6126324;23;20068;-81
2021/07/03 05:11:21;;;;;;;6.82;3.35;;;;;;;18.02;63.41;101192.06;6152680;23;20005;-80
2021/07/03 05:13:47;;;;;;;7.40;3.30;;;;;;;17.80;64.30;101201.78;6125709;23;20104;-80
2021/07/03 05:16:12;;;;;;;3.45;2.67;;;;;;;17.77;64.46;101191.22;6153024;23;20300;-80
2021/07/03 05:18:37;;;;;;;6.50;3.05;;;;;;;18.06;63.52;101183.38;6126203;23;20001;-80
2021/07/03 05:21:03;;;;;;;4.65;2.92;;;;;;;18.17;63.19;101190.31;6126317;23;20014;-81
2021/07/03 05:23:28;;;;;;;4.35;3.00;;;;;;;18.33;62.68;101194.84;6152810;23;20340;-81
2021/07/03 05:25:55;;;;;;;3.92;3.08;;;;;;;18.24;63.11;101187.75;6152380;23;20334;-81
2021/07/03 05:28:20;;;;;;;4.25;2.90;;;;;;;18.29;63.17;101191.63;6152313;23;20051;-80
2021/07/03 05:30:48;;;;;;;6.13;2.90;;;;;;;18.35;62.72;101195.53;6153097;23;20032;-80
2021/07/03 05:33:13;;;;;;;5.38;3.10;;;;;;;18.68;61.87;101188.09;6126659;23;20360;-81
2021/07/03 05:35:38;;;;;;;3.17;2.22;;;;;;;18.64;61.91;101186.75;6152636;23;20040;-81
2021/07/03 05:38:04;;;;;;;5.20;2.95;;;;;;;18.37;62.37;101183.44;6152331;23;20014;-80
2021/07/03 05:40:29;;;;;;;4.28;2.65;;;;;;;18.75;61.75;101194.53;6152619;23;20059;-81
2021/07/03 05:42:55;;;;;;;5.13;2.83;;;;;;;18.80;61.58;101191.28;6152282;23;20111;-81
2021/07/03 05:45:20;;;;;;;4.82;2.63;;;;;;;18.76;61.29;101198.97;6126111;23;20016;-80
2021/07/03 05:47:51;;;;;;;6.75;2.55;;;;;;;18.88;61.22;101198.56;6153137;23;20033;-81
2021/07/03 05:50:22;;;;;;;4.57;3.10;;;;;;;18.90;61.10;101191.06;6126463;23;20016;-80
2021/07/03 05:52:47;;;;;;;3.90;2.33;;;;;;;19.03;60.27;101202.22;6153490;23;20006;-81
2021/07/03 05:55:12;;;;;;;3.30;2.20;;;;;;;19.07;60.29;101195.41;6154499;23;20033;-81
2021/07/03 05:57:38;;;;;;;2.47;2.28;;;;;;;18.84;60.56;101198.06;6153976;23;20025;-81
2021/07/03 06:00:09;;;;;;;3.22;2.63;;;;;;;18.88;60.31;101207.59;6152488;23;20050;-81
2021/07/03 06:02:34;;;;;;;4.97;2.10;;;;;;;18.87;60.80;101205.06;6126563;23;20033;-81
2021/07/03 06:05:00;;;;;;;3.88;2.67;;;;;;;18.91;61.16;101200.94;6153499;23;20409;-81
2021/07/03 06:07:26;;;;;;;3.53;2.28;;;;;;;18.94;60.64;101203.28;6153326;23;20005;-81
2021/07/03 06:09:52;;;;;;;3.28;2.40;;;;;;;18.89;60.54;101195.66;6126146;23;20056;-81
2021/07/03 06:12:17;;;;;;;2.63;2.30;;;;;;;18.93;60.80;101205.19;6152805;23;20006;-81
2021/07/03 06:14:42;;;;;;;4.40;2.83;;;;;;;18.74;61.23;101201.03;6125946;23;20097;-81
2021/07/03 06:17:13;;;;;;;5.53;3.22;;;;;;;18.74;61.59;101206.47;6152982;23;20583;-81
2021/07/03 06:19:38;;;;;;;5.63;3.30;;;;;;;18.59;61.90;101203.63;6126289;23;20083;-81
2021/07/03 06:22:03;;;;;;;3.78;2.65;;;;;;;18.62;62.28;101199.69;6152648;23;20014;-81
2021/07/03 06:24:30;;;;;;;4.68;2.83;;;;;;;18.79;61.67;101208.66;6152958;23;20258;-80
2021/07/03 06:26:55;;;;;;;7.45;3.20;;;;;;;18.50;62.97;101201.94;6126658;23;20480;-81
2021/07/03 06:29:21;;;;;;;4.85;3.70;;;;;;;18.65;62.39;101193.88;6125486;23;20029;-81
2021/07/03 06:31:46;;;;;;;3.90;3.33;;;;;;;18.74;62.34;101202.91;6152441;23;20048;-80
2021/07/03 06:34:11;;;;;;;4.35;3.42;;;;;;;18.99;61.61;101198.16;6125632;23;20337;-81
2021/07/03 06:36:37;;;;;;;3.90;3.30;;;;;;;18.93;62.38;101202.44;6153001;23;20009;-81
2021/07/03 06:39:03;;;;;;;2.88;2.60;;;;;;;18.92;61.48;101205.38;6127627;23;20040;-81
2021/07/03 06:41:28;;;;;;;3.47;2.78;;;;;;;19.00;61.50;101195.25;6154690;23;20519;-81
2021/07/03 06:43:54;;;;;;;5.20;3.10;;;;;;;19.14;60.82;101200.97;6127610;23;20025;-81
2021/07/03 06:46:19;;;;;;;5.90;2.70;;;;;;;19.29;60.94;101199.16;6154332;23;20044;-81
2021/07/03 06:48:44;;;;;;;3.17;2.88;;;;;;;19.26;60.67;101210.44;6154446;23;20437;-81
2021/07/03 06:51:10;;;;;;;3.60;2.60;;;;;;;19.40;60.50;101203.31;6154405;23;20426;-81
2021/07/03 06:53:35;;;;;;;2.85;2.63;;;;;;;19.53;60.01;101200.84;6154321;23;20064;-81
2021/07/03 06:56:01;;;;;;;3.13;2.45;;;;;;;19.64;59.52;101207.75;6154267;23;20009;-81
2021/07/03 06:58:27;;;;;;;5.80;3.13;;;;;;;19.83;59.08;101209.13;6154517;23;20079;-81
2021/07/03 07:00:52;;;;;;;2.97;2.50;;;;;;;19.95;58.60;101204.91;6154054;23;20005;-81
2021/07/03 07:03:17;;;;;;;3.83;2.88;;;;;;;19.94;58.36;101206.81;6128330;23;20028;-81
2021/07/03 07:05:42;;;;;;;3.00;2.70;;;;;;;19.93;58.50;101207.84;6154445;23;20016;-81
2021/07/03 07:08:08;;;;;;;3.25;2.50;;;;;;;19.61;59.12;101213.56;6154832;23;20433;-80
2021/07/03 07:10:33;;;;;;;2.85;2.50;;;;;;;19.70;59.15;101210.59;6127451;23;20010;-81
2021/07/03 07:13:05;;;;;;;3.30;2.85;;;;;;;19.84;59.57;101210.84;6154284;23;20005;-81
2021/07/03 07:15:30;;;;;;;3.22;2.90;;;;;;;19.81;59.48;101214.78;6154636;23;20052;-80
2021/07/03 07:17:55;;;;;;;3.40;2.97;;;;;;;19.85;59.74;101212.53;6154143;23;20009;-81
2021/07/03 07:20:21;;;;;;;3.42;3.13;;;;;;;19.71;59.67;101223.25;6127382;23;20009;-81
2021/07/03 07:22:46;;;;;;;3.58;2.90;;;;;;;19.65;60.10;101210.34;6154528;23;20037;-81
2021/07/03 07:25:11;;;;;;;3.10;2.83;;;;;;;19.80;60.01;101221.25;6153857;23;20072;-81
2021/07/03 07:27:37;;;;;;;3.28;2.97;;;;;;;19.70;60.63;101213.34;6127897;23;20049;-81
2021/07/03 07:30:04;;;;;;;3.70;3.10;;;;;;;19.56;61.05;101216.84;6153567;23;20473;-81
2021/07/03 07:32:29;;;;;;;4.65;3.42;;;;;;;19.46;60.84;101221.69;6154429;23;20032;-81
2021/07/03 07:34:55;;;;;;;4.32;3.45;;;;;;;19.35;61.02;101211.22;6153635;23;20040;-81
2021/07/03 07:37:20;;;;;;;4.70;3.58;;;;;;;19.42;61.40;101223.94;6154475;23;20010;-81
2021/07/03 07:39:45;;;;;;;3.22;3.00;;;;;;;19.45;61.60;101220.84;6154371;23;20017;-81
2021/07/03 07:42:11;;;;;;;5.40;3.42;;;;;;;19.65;61.24;101214.91;6154335;23;20061;-81
2021/07/03 07:44:36;;;;;;;5.80;3.33;;;;;;;19.92;60.50;101210.75;6127276;23;20056;-80
2021/07/03 07:47:01;;;;;;;3.03;2.65;;;;;;;20.07;59.37;101202.56;6154268;23;20009;-81
2021/07/03 07:49:27;;;;;;;3.60;2.70;;;;;;;20.25;58.83;101202.22;6153826;23;20442;-81
2021/07/03 07:51:52;;;;;;;4.47;2.70;;;;;;;20.29;58.52;101204.38;6153878;23;20084;-81
2021/07/03 07:54:18;;;;;;;2.97;2.17;;;;;;;20.45;58.41;101195.16;6153729;23;20397;-81
2021/07/03 07:56:43;;;;;;;2.35;2.17;;;;;;;19.97;58.84;101197.41;6154530;23;20031;-81
2021/07/03 07:59:08;;;;;;;2.65;2.45;;;;;;;19.98;58.96;101201.81;6154014;23;20065;-80
2021/07/03 08:01:33;;;;;;;2.47;2.28;;;;;;;19.94;59.35;101195.88;6153996;23;20056;-81
2021/07/03 08:03:59;;;;;;;2.58;2.38;;;;;;;20.08;59.41;101196.94;6153795;23;20386;-81
2021/07/03 08:06:24;;;;;;;2.10;2.00;;;;;;;20.24;58.63;101192.34;6127780;23;20010;-81
2021/07/03 08:08:49;;;;;;;4.72;2.28;;;;;;;20.30;58.94;101197.06;6128292;23;20059;-81
2021/07/03 08:11:15;;;;;;;2.95;2.65;;;;;;;20.25;58.72;101197.59;6154515;23;20008;-81
2021/07/03 08:13:40;;;;;;;6.15;3.53;;;;;;;20.14;58.92;101198.94;6154278;23;20334;-81
2021/07/03 08:16:05;;;;;;;4.65;2.50;;;;;;;20.20;58.74;101192.72;6154779;23;20383;-81
2021/07/03 08:18:30;;;;;;;3.25;2.92;;;;;;;20.17;58.67;101182.16;6154032;23;20032;-80
2021/07/03 08:20:56;;;;;;;2.00;1.90;;;;;;;20.35;58.17;101181.75;6153790;23;20006;-81
2021/07/03 08:23:22;;;;;;;2.42;2.22;;;;;;;20.29;57.73;101176.22;6127404;23;20009;-81
2021/07/03 08:25:48;;;;;;;2.10;2.00;;;;;;;20.38;57.45;101184.13;6127167;23;20044;-81
2021/07/03 08:28:14;;;;;;;1.90;1.80;;;;;;;20.42;57.84;101171.78;6152924;23;20476;-81
2021/07/03 08:30:39;;;;;;;2.30;2.20;;;;;;;20.69;58.07;101177.59;6154145;23;20006;-81
2021/07/03 08:33:04;;;;;;;1.98;1.83;;;;;;;20.90;56.12;101179.53;6154806;23;20052;-81
2021/07/03 08:35:30;;;;;;;1.65;1.55;;;;;;;20.90;55.67;101171.34;6154623;23;20009;-81
2021/07/03 08:37:55;;;;;;;2.22;1.75;;;;;;;21.07;55.93;101178.28;6154543;23;20070;-81
2021/07/03 08:40:21;;;;;;;2.45;1.63;;;;;;;20.82;56.08;101174.22;6154898;23;20084;-81
2021/07/03 08:42:47;;;;;;;1.92;1.67;;;;;;;20.87;56.27;101174.47;6153595;23;20005;-81
2021/07/03 08:45:13;;;;;;;3.50;2.60;;;;;;;20.70;56.76;101173.84;6153651;23;20413;-81
2021/07/03 08:47:43;;;;;;;4.78;2.30;;;;;;;20.47;58.10;101170.38;6153412;23;20005;-81
2021/07/03 08:50:12;;;;;;;2.00;1.90;;;;;;;20.41;57.80;101171.97;6126598;23;20061;-81
2021/07/03 08:52:38;;;;;;;2.20;1.95;;;;;;;20.67;57.63;101176.13;6154371;23;20036;-81
2021/07/03 08:55:14;;;;;;;1.83;1.73;;;;;;;20.85;56.30;101171.94;6154495;23;20009;-81
2021/07/03 08:57:52;;;;;;;1.98;1.88;;;;;;;21.10;55.78;101172.41;6154347;23;20623;-81
2021/07/03 09:00:19;;;;;;;3.17;2.88;;;;;;;21.37;55.59;101169.13;6154637;23;20012;-81
2021/07/03 09:02:45;;;;;;;2.30;1.67;;;;;;;21.35;55.20;101172.03;6127954;23;20048;-81
2021/07/03 09:05:41;;;;;;;1.88;1.77;;;;;;;21.20;55.03;101166.63;6153747;23;20009;-81
2021/07/03 09:08:09;;;;;;;2.05;1.85;;;;;;;21.23;55.50;101170.84;6087496;23;20010;-81
2021/07/03 09:10:37;;;;;;;2.95;2.10;;;;;;;21.07;56.58;101172.78;6154223;23;20032;-81
2021/07/03 09:13:03;;;;;;;2.95;2.28;;;;;;;21.07;56.31;101169.22;6153427;23;20006;-81
2021/07/03 09:15:34;;;;;;;2.05;1.92;;;;;;;21.20;56.00;101160.31;6153653;23;20059;-81
2021/07/03 09:18:03;;;;;;;2.30;2.10;;;;;;;21.18;55.98;101162.38;6154134;23;20402;-81
2021/07/03 09:20:36;;;;;;;2.85;2.13;;;;;;;21.19;55.64;101169.56;6154645;23;20013;-81
2021/07/03 09:23:22;;;;;;;2.70;2.50;;;;;;;21.20;55.70;101166.63;6154340;23;20006;-81
2021/07/03 09:25:57;;;;;;;2.47;2.17;;;;;;;21.00;56.69;101171.88;6153619;23;20489;-81
2021/07/03 09:28:28;;;;;;;4.60;2.15;;;;;;;20.63;57.03;101172.91;6153529;23;20339;-81
2021/07/03 09:30:55;;;;;;;2.40;2.20;;;;;;;20.78;56.94;101178.34;6153561;23;20502;-81
2021/07/03 09:33:26;;;;;;;2.28;2.00;;;;;;;21.00;57.12;101171.88;6153463;23;20012;-81
2021/07/03 09:36:00;;;;;;;1.98;1.88;;;;;;;21.10;55.52;101166.09;6152624;23;20005;-81
2021/07/03 09:38:48;;;;;;;2.97;2.15;;;;;;;21.12;56.08;101174.97;6153948;23;20009;-81
2021/07/03 09:41:18;;;;;;;2.92;2.28;;;;;;;21.11;55.64;101170.50;6153927;23;20005;-81
2021/07/03 09:43:50;;;;;;;2.20;2.00;;;;;;;21.19;55.69;101186.81;6153117;23;20484;-81
2021/07/03 09:46:28;;;;;;;2.75;2.50;;;;;;;20.84;56.70;101180.31;6154568;23;20104;-81
2021/07/03 09:49:00;;;;;;;2.17;2.00;;;;;;;20.99;56.24;101175.66;6127115;23;20021;-81
2021/07/03 09:51:33;;;;;;;2.67;2.47;;;;;;;21.11;56.16;101174.09;6127588;23;20010;-81
2021/07/03 09:53:59;;;;;;;3.83;2.17;;;;;;;21.10;55.14;101172.41;6127472;23;20566;-81
2021/07/03 09:56:25;;;;;;;2.95;2.20;;;;;;;21.25;54.40;101185.19;6154012;23;20005;-81
2021/07/03 09:58:51;;;;;;;1.98;1.80;;;;;;;21.35;54.55;101180.22;6153388;23;20103;-81
2021/07/03 10:01:17;;;;;;;2.15;1.75;;;;;;;21.68;53.94;101183.28;6153053;23;20009;-81
2021/07/03 10:03:43;;;;;;;2.35;2.13;;;;;;;22.09;52.97;101188.00;6127343;23;20002;-81
2021/07/03 10:06:33;;;;;;;4.80;1.70;;;;;;;22.36;52.43;101188.22;6128789;23;20029;-81
2021/07/03 10:09:03;;;;;;;2.07;1.87;;;;;;;22.29;51.54;101179.97;6126871;23;20489;-81
2021/07/03 10:11:32;;;;;;;2.25;2.00;;;;;;;21.85;52.61;101175.63;6155060;23;20256;-81
2021/07/03 10:14:02;;;;;;;1.70;1.60;;;;;;;22.18;51.87;101178.63;6156331;23;20010;-81
2021/07/03 10:16:28;;;;;;;1.77;1.60;;;;;;;22.49;51.94;101175.41;6156580;23;20005;-81
2021/07/03 10:19:07;;;;;;;2.85;1.90;;;;;;;22.36;51.11;101185.47;6156420;23;20454;-81
2021/07/03 10:21:33;;;;;;;6.63;2.67;;;;;;;22.41;51.58;101174.75;6129000;23;20009;-81
2021/07/03 10:23:58;;;;;;;4.50;2.58;;;;;;;22.69;51.68;101169.19;6155422;23;20009;-81
2021/07/03 10:26:37;;;;;;;2.45;2.25;;;;;;;22.52;50.91;101168.66;6155818;23;20085;-81
2021/07/03 10:29:14;;;;;;;2.75;2.20;;;;;;;22.52;50.74;101179.63;6156130;23;20017;-81
2021/07/03 10:31:39;;;;;;;2.72;2.15;;;;;;;22.39;50.99;101174.94;6157128;23;20007;-81
2021/07/03 10:34:05;;;;;;;2.92;2.20;;;;;;;22.61;50.01;101166.59;6156357;23;20017;-81
2021/07/03 10:36:31;;;;;;;2.28;2.05;;;;;;;22.89;51.05;101170.06;6155992;23;20005;-81
2021/07/03 10:38:59;;;;;;;2.30;2.10;;;;;;;23.00;48.96;101167.84;6156013;23;20056;-82
2021/07/03 10:41:33;;;;;;;2.80;2.47;;;;;;;22.93;49.02;101171.38;6155309;23;20040;-81
2021/07/03 10:44:06;;;;;;;5.38;2.60;;;;;;;22.62;48.70;101166.41;6155882;23;20818;-81
2021/07/03 10:46:34;;;;;;;3.03;2.08;;;;;;;22.71;49.46;101164.31;6130241;23;20029;-81
2021/07/03 10:49:04;;;;;;;2.28;2.08;;;;;;;22.83;48.30;101162.66;6156046;23;20032;-81
2021/07/03 10:51:41;;;;;;;3.25;2.22;;;;;;;22.98;48.59;101165.28;6155539;23;19997;-81
2021/07/03 10:54:13;;;;;;;2.42;2.20;;;;;;;22.80;49.81;101159.50;6156528;23;20005;-81
2021/07/03 10:57:00;;;;;;;3.33;2.65;;;;;;;22.59;50.58;101169.56;6156301;23;20355;-81
2021/07/03 10:59:26;;;;;;;3.30;2.20;;;;;;;22.74;50.37;101163.91;6129145;23;20012;-81
2021/07/03 11:01:52;;;;;;;3.00;2.70;;;;;;;22.56;50.95;101161.75;6155857;23;20056;-81
2021/07/03 11:04:20;;;;;;;3.40;2.33;;;;;;;22.49;51.77;101164.44;6155194;23;20560;-81
2021/07/03 11:06:53;;;;;;;2.47;2.03;;;;;;;22.51;50.48;101166.16;6128290;23;20009;-81
2021/07/03 11:09:21;;;;;;;4.25;2.33;;;;;;;22.51;50.51;101153.28;6129525;23;20438;-81
2021/07/03 11:11:46;;;;;;;3.50;2.47;;;;;;;22.60;50.20;101154.81;6155102;23;20006;-81
2021/07/03 11:14:19;;;;;;;4.45;2.30;;;;;;;22.84;49.04;101150.66;6129141;23;20037;-81
2021/07/03 11:16:58;;;;;;;2.58;2.20;;;;;;;23.04;47.20;101158.97;6156463;23;20009;-81
2021/07/03 11:19:28;;;;;;;4.28;2.22;;;;;;;23.11;48.13;101159.84;6129661;23;20056;-81
2021/07/03 11:22:11;;;;;;;3.20;2.63;;;;;;;23.45;47.24;101149.75;6155616;23;20506;-81